createdAt,value
2023-12-30T00:02:27.587Z,1.73
2023-12-30T00:04:57.576Z,1.63
2023-12-30T00:07:27.620Z,0.98
2023-12-30T00:10:00.050Z,0.98
2023-12-30T00:12:30.096Z,0.63
2023-12-30T00:14:59.865Z,0.85
2023-12-30T00:17:29.954Z,0.77
2023-12-30T00:19:59.753Z,1.13
2023-12-30T00:22:29.881Z,1.00
2023-12-30T00:25:02.353Z,1.38
2023-12-30T00:27:32.670Z,1.17
2023-12-30T00:30:02.429Z,1.13
2023-12-30T00:32:34.164Z,0.90
2023-12-30T00:35:04.161Z,0.95
2023-12-30T00:37:33.994Z,1.27
2023-12-30T00:40:06.663Z,0.93
2023-12-30T00:42:36.566Z,1.35
2023-12-30T00:45:06.786Z,0.90
2023-12-30T00:47:36.937Z,1.13
2023-12-30T00:50:07.015Z,0.80
2023-12-30T00:52:37.286Z,0.85
2023-12-30T00:55:10.626Z,0.70
2023-12-30T00:57:40.748Z,0.70
2023-12-30T01:00:11.089Z,0.70
2023-12-30T01:02:40.842Z,0.57
2023-12-30T01:05:11.364Z,0.52
2023-12-30T01:07:41.214Z,0.63
2023-12-30T01:10:13.887Z,0.80
2023-12-30T01:12:44.041Z,0.65
2023-12-30T01:15:14.285Z,0.55
2023-12-30T01:17:44.483Z,0.68
2023-12-30T01:20:14.733Z,1.00
2023-12-30T01:22:44.788Z,0.65
2023-12-30T01:25:17.161Z,1.10
2023-12-30T01:27:47.581Z,1.20
2023-12-30T01:30:18.266Z,1.00
2023-12-30T01:32:48.312Z,0.77
2023-12-30T01:35:18.805Z,0.88
2023-12-30T01:37:48.569Z,1.08
2023-12-30T01:40:21.206Z,1.13
2023-12-30T01:42:51.347Z,0.98
2023-12-30T01:45:21.429Z,0.70
2023-12-30T01:47:51.563Z,1.20
2023-12-30T01:50:21.636Z,0.80
2023-12-30T01:52:51.986Z,1.08
2023-12-30T01:55:24.476Z,1.38
2023-12-30T01:57:54.301Z,0.80
2023-12-30T02:00:25.568Z,0.95
2023-12-30T02:02:57.345Z,1.48
2023-12-30T02:05:27.508Z,0.75
2023-12-30T02:07:58.514Z,0.90
2023-12-30T02:10:31.182Z,1.25
2023-12-30T02:13:01.745Z,1.20
2023-12-30T02:15:31.641Z,1.35
2023-12-30T02:18:02.381Z,0.90
2023-12-30T02:20:32.879Z,1.17
2023-12-30T02:23:05.517Z,1.00
2023-12-30T02:25:35.955Z,1.10
2023-12-30T02:28:05.956Z,0.75
2023-12-30T02:30:36.041Z,1.35
2023-12-30T02:33:06.258Z,1.23
2023-12-30T02:35:36.318Z,1.05
2023-12-30T02:38:08.725Z,1.52
2023-12-30T02:40:39.011Z,0.93
2023-12-30T02:43:08.844Z,0.80
2023-12-30T02:45:39.037Z,1.45
2023-12-30T02:48:09.568Z,1.10
2023-12-30T02:50:39.713Z,1.50
2023-12-30T02:53:12.041Z,0.75
2023-12-30T02:55:41.811Z,1.13
2023-12-30T02:58:11.646Z,0.60
2023-12-30T03:00:41.804Z,1.13
2023-12-30T03:03:11.624Z,1.00
2023-12-30T03:05:41.740Z,0.73
2023-12-30T03:08:14.489Z,0.65
2023-12-30T03:10:44.434Z,1.15
2023-12-30T03:13:14.757Z,1.15
2023-12-30T03:15:45.055Z,1.40
2023-12-30T03:18:15.382Z,1.55
2023-12-30T03:20:45.255Z,1.15
2023-12-30T03:23:17.715Z,1.20
2023-12-30T03:25:47.807Z,1.55
2023-12-30T03:28:17.641Z,1.00
2023-12-30T03:30:47.946Z,1.10
2023-12-30T03:33:18.145Z,1.52
2023-12-30T03:35:48.436Z,1.20
2023-12-30T03:38:20.829Z,1.02
2023-12-30T03:40:51.184Z,1.42
2023-12-30T03:43:21.021Z,1.25
2023-12-30T03:45:51.158Z,1.17
2023-12-30T03:48:21.546Z,1.02
2023-12-30T03:50:51.698Z,0.63
2023-12-30T03:53:24.112Z,0.98
2023-12-30T03:55:54.133Z,0.85
2023-12-30T03:58:24.259Z,0.82
2023-12-30T04:00:54.387Z,0.77
2023-12-30T04:03:24.318Z,0.90
2023-12-30T04:05:54.292Z,1.02
2023-12-30T04:08:27.037Z,0.98
2023-12-30T04:10:57.171Z,0.93
2023-12-30T04:13:26.976Z,0.47
2023-12-30T04:15:56.936Z,0.63
2023-12-30T04:18:27.042Z,0.50
2023-12-30T04:20:56.857Z,0.40
2023-12-30T04:23:29.504Z,0.98
2023-12-30T04:25:59.511Z,1.00
2023-12-30T04:28:29.430Z,0.60
2023-12-30T04:30:59.490Z,0.68
2023-12-30T04:33:29.722Z,0.85
2023-12-30T04:35:59.559Z,0.98
2023-12-30T04:38:32.974Z,0.90
2023-12-30T04:41:02.770Z,0.85
2023-12-30T04:43:32.580Z,0.93
2023-12-30T04:46:02.675Z,0.70
2023-12-30T04:48:32.485Z,0.95
2023-12-30T04:51:02.605Z,1.30
2023-12-30T04:53:34.960Z,0.70
2023-12-30T04:56:05.997Z,1.10
2023-12-30T04:58:35.802Z,0.73
2023-12-30T05:01:05.916Z,0.80
2023-12-30T05:03:35.753Z,1.00
2023-12-30T05:06:06.080Z,1.00
2023-12-30T05:08:38.429Z,0.63
2023-12-30T05:11:08.659Z,1.08
2023-12-30T05:13:38.575Z,0.90
2023-12-30T05:16:08.992Z,0.60
2023-12-30T05:18:39.151Z,0.80
2023-12-30T05:21:14.929Z,0.98
2023-12-30T05:23:47.709Z,0.55
2023-12-30T05:26:17.538Z,0.75
2023-12-30T05:28:47.301Z,1.15
2023-12-30T05:31:14.780Z,0.63
2023-12-30T05:33:44.761Z,0.70
2023-12-30T05:36:14.674Z,1.00
2023-12-30T05:38:47.399Z,0.75
2023-12-30T05:41:17.410Z,0.65
2023-12-30T05:43:47.399Z,0.60
2023-12-30T05:46:20.625Z,0.50
2023-12-30T05:48:50.897Z,0.60
2023-12-30T05:51:23.188Z,0.50
2023-12-30T05:53:57.167Z,1.15
2023-12-30T05:56:28.159Z,0.65
2023-12-30T05:58:58.135Z,0.70
2023-12-30T06:01:28.093Z,0.70
2023-12-30T06:03:58.342Z,0.60
2023-12-30T06:06:29.760Z,0.60
2023-12-30T06:09:03.299Z,0.63
2023-12-30T06:11:33.467Z,1.10
2023-12-30T06:14:03.688Z,1.20
2023-12-30T06:16:33.549Z,0.82
2023-12-30T06:19:03.645Z,1.00
2023-12-30T06:21:33.564Z,0.60
2023-12-30T06:24:05.959Z,0.98
2023-12-30T06:26:39.734Z,1.00
2023-12-30T06:29:11.547Z,0.73
2023-12-30T06:31:43.489Z,0.77
2023-12-30T06:34:13.567Z,0.90
2023-12-30T06:36:46.602Z,0.73
2023-12-30T06:39:20.580Z,0.98
2023-12-30T06:41:50.348Z,1.00
2023-12-30T06:44:20.430Z,0.90
2023-12-30T06:46:50.565Z,1.00
2023-12-30T06:49:20.678Z,0.85
2023-12-30T06:51:51.133Z,1.05
2023-12-30T07:00:36.800Z,0.85
2023-12-30T07:03:07.468Z,2.20
2023-12-30T07:05:38.965Z,1.60
2023-12-30T07:08:09.456Z,1.17
2023-12-30T07:10:39.403Z,0.73
2023-12-30T07:13:09.438Z,1.25
2023-12-30T07:15:41.896Z,1.40
2023-12-30T07:18:12.216Z,1.90
2023-12-30T07:20:42.032Z,2.30
2023-12-30T07:23:11.847Z,2.60
2023-12-30T07:28:48.195Z,2.20
2023-12-30T07:31:20.935Z,1.45
2023-12-30T07:33:50.931Z,1.58
2023-12-30T07:36:22.053Z,2.08
2023-12-30T07:38:51.787Z,2.10
2023-12-30T07:41:21.992Z,1.50
2023-12-30T07:43:52.546Z,1.33
2023-12-30T07:46:27.078Z,1.20
2023-12-30T07:48:57.174Z,1.70
2023-12-30T07:51:27.786Z,1.30
2023-12-30T07:53:57.571Z,2.13
2023-12-30T07:56:28.199Z,1.63
2023-12-30T07:58:58.544Z,2.65
2023-12-30T08:01:31.213Z,2.90
2023-12-30T08:04:01.998Z,4.38
2023-12-30T08:06:32.818Z,3.22
2023-12-30T08:09:02.657Z,1.98
2023-12-30T08:11:39.584Z,2.78
2023-12-30T08:14:15.341Z,2.28
2023-12-30T08:16:47.841Z,1.98
2023-12-30T08:19:17.920Z,1.88
2023-12-30T08:21:48.163Z,2.58
2023-12-30T08:24:20.711Z,2.20
2023-12-30T08:26:50.625Z,2.55
2023-12-30T08:29:20.752Z,1.98
2023-12-30T08:31:53.149Z,1.75
2023-12-30T08:34:23.618Z,1.77
2023-12-30T08:36:53.812Z,1.67
2023-12-30T08:39:23.720Z,1.65
2023-12-30T08:41:53.768Z,1.90
2023-12-30T08:44:23.595Z,1.58
2023-12-30T08:46:56.112Z,2.13
2023-12-30T08:49:25.986Z,1.83
2023-12-30T08:51:56.151Z,1.58
2023-12-30T08:54:25.952Z,2.03
2023-12-30T08:56:56.411Z,4.03
2023-12-30T08:59:27.266Z,2.05
2023-12-30T09:01:59.717Z,2.13
2023-12-30T09:04:29.622Z,2.22
2023-12-30T09:06:59.794Z,2.20
2023-12-30T09:09:29.657Z,3.28
2023-12-30T09:11:59.464Z,2.08
2023-12-30T09:14:29.245Z,3.22
2023-12-30T09:17:01.697Z,2.05
2023-12-30T09:19:32.053Z,2.17
2023-12-30T09:22:02.802Z,2.63
2023-12-30T09:24:32.753Z,2.05
2023-12-30T09:27:03.531Z,1.42
2023-12-30T09:29:33.388Z,1.90
2023-12-30T09:32:06.855Z,1.92
2023-12-30T09:34:41.928Z,2.42
2023-12-30T09:37:16.567Z,2.28
2023-12-30T09:39:46.579Z,2.25
2023-12-30T09:42:16.822Z,2.22
2023-12-30T09:44:46.966Z,2.55
2023-12-30T09:47:20.005Z,2.53
2023-12-30T09:52:19.773Z,1.67
2023-12-30T09:54:50.048Z,3.45
2023-12-30T09:57:19.987Z,2.40
2023-12-30T09:59:51.165Z,1.92
2023-12-30T10:02:23.517Z,1.60
2023-12-30T10:04:53.390Z,1.45
2023-12-30T10:07:23.229Z,1.73
2023-12-30T10:09:54.101Z,1.85
2023-12-30T10:12:24.152Z,1.38
2023-12-30T10:14:53.961Z,1.80
2023-12-30T10:17:26.317Z,1.40
2023-12-30T10:19:56.234Z,1.88
2023-12-30T10:22:27.443Z,1.33
2023-12-30T10:24:57.361Z,1.05
2023-12-30T10:27:27.247Z,1.48
2023-12-30T10:30:00.670Z,1.88
2023-12-30T10:32:34.090Z,1.27
2023-12-30T10:35:04.093Z,1.42
2023-12-30T10:37:33.901Z,1.85
2023-12-30T10:40:04.982Z,2.03
2023-12-30T10:42:34.847Z,1.83
2023-12-30T10:45:04.782Z,1.58
2023-12-30T10:47:41.468Z,1.45
2023-12-30T10:50:13.265Z,1.67
2023-12-30T10:52:47.654Z,1.00
2023-12-30T10:55:19.384Z,1.65
2023-12-30T10:57:52.162Z,1.77
2023-12-30T11:00:23.587Z,2.33
2023-12-30T11:02:56.096Z,1.50
2023-12-30T11:05:28.405Z,1.27
2023-12-30T11:07:58.537Z,1.80
2023-12-30T11:10:29.797Z,1.60
2023-12-30T11:13:01.298Z,1.48
2023-12-30T11:15:32.345Z,2.03
2023-12-30T11:18:05.970Z,1.52
2023-12-30T11:20:37.891Z,1.75
2023-12-30T11:23:08.021Z,1.92
2023-12-30T11:25:39.408Z,1.77
2023-12-30T11:28:15.840Z,1.98
2023-12-30T11:30:53.217Z,2.30
2023-12-30T11:33:26.463Z,2.42
2023-12-30T11:38:26.282Z,2.67
2023-12-30T11:40:57.074Z,2.47
2023-12-30T11:43:27.535Z,2.58
2023-12-30T11:45:57.576Z,2.28
2023-12-30T11:48:30.063Z,1.45
2023-12-30T11:51:00.021Z,1.88
2023-12-30T11:53:29.852Z,2.03
2023-12-30T11:56:00.506Z,2.20
2023-12-30T11:58:30.243Z,2.33
2023-12-30T12:01:00.530Z,2.17
2023-12-30T12:03:33.049Z,1.60
2023-12-30T12:06:03.354Z,1.98
2023-12-30T12:08:33.191Z,1.65
2023-12-30T12:11:03.110Z,1.83
2023-12-30T12:13:33.407Z,1.58
2023-12-30T12:16:05.625Z,2.25
2023-12-30T12:18:38.199Z,1.80
2023-12-30T12:21:15.206Z,3.20
2023-12-30T12:23:43.310Z,3.33
2023-12-30T12:26:13.556Z,2.90
2023-12-30T12:28:43.324Z,4.97
2023-12-30T12:31:16.984Z,2.30
2023-12-30T12:33:49.813Z,3.55
2023-12-30T12:36:20.765Z,2.15
2023-12-30T12:38:51.938Z,2.10
2023-12-30T12:41:21.773Z,1.75
2023-12-30T12:43:51.585Z,1.77
2023-12-30T12:46:21.430Z,1.85
2023-12-30T12:48:53.937Z,2.33
2023-12-30T12:51:24.287Z,2.78
2023-12-30T12:53:54.051Z,2.65
2023-12-30T12:56:24.066Z,2.20
2023-12-30T12:58:54.230Z,2.22
2023-12-30T13:01:24.122Z,2.10
2023-12-30T13:04:00.108Z,2.20
2023-12-30T13:06:30.277Z,2.08
2023-12-30T13:09:01.056Z,1.65
2023-12-30T13:11:33.502Z,2.53
2023-12-30T13:14:10.445Z,1.60
2023-12-30T13:16:40.236Z,1.73
2023-12-30T13:19:13.365Z,1.85
2023-12-30T13:21:43.661Z,2.15
2023-12-30T13:24:13.824Z,2.03
2023-12-30T13:26:45.026Z,2.08
2023-12-30T13:29:16.083Z,2.17
2023-12-30T13:31:49.086Z,1.85
2023-12-30T13:34:21.824Z,1.70
2023-12-30T13:36:58.135Z,2.42
2023-12-30T13:39:28.361Z,1.90
2023-12-30T13:41:59.179Z,1.70
2023-12-30T13:44:30.315Z,1.80
2023-12-30T13:47:22.906Z,2.20
2023-12-30T13:50:10.839Z,2.03
2023-12-30T13:52:41.165Z,2.28
2023-12-30T13:55:14.241Z,1.98
2023-12-30T13:57:44.567Z,2.42
2023-12-30T14:00:15.701Z,2.08
2023-12-30T14:02:45.642Z,2.20
2023-12-30T14:05:28.059Z,2.17
2023-12-30T14:08:06.050Z,5.27
2023-12-30T14:10:36.457Z,3.50
2023-12-30T14:13:07.370Z,1.88
2023-12-30T14:15:37.353Z,1.90
2023-12-30T14:18:07.814Z,1.88
2023-12-30T14:20:41.217Z,2.08
2023-12-30T14:23:11.106Z,2.38
2023-12-30T14:25:41.755Z,3.15
2023-12-30T14:28:11.723Z,2.75
2023-12-30T14:30:41.634Z,2.22
2023-12-30T14:33:11.755Z,2.22
2023-12-30T14:35:44.708Z,2.83
2023-12-30T14:38:14.522Z,2.40
2023-12-30T14:40:44.390Z,3.05
2023-12-30T14:43:14.728Z,3.47
2023-12-30T14:45:44.599Z,2.25
2023-12-30T14:48:14.582Z,2.25
2023-12-30T14:50:47.177Z,3.80
2023-12-30T14:53:16.908Z,4.05
2023-12-30T14:55:46.858Z,2.45
2023-12-30T14:58:17.285Z,3.08
2023-12-30T15:00:47.225Z,4.00
2023-12-30T15:03:17.087Z,3.50
2023-12-30T15:05:49.990Z,3.70
2023-12-30T15:08:19.828Z,2.47
2023-12-30T15:10:49.770Z,2.42
2023-12-30T15:13:19.599Z,5.30
2023-12-30T15:15:49.788Z,9.68
2023-12-30T15:18:21.327Z,7.20
2023-12-30T15:20:56.849Z,5.93
2023-12-30T15:23:27.196Z,4.38
2023-12-30T15:25:57.011Z,4.88
2023-12-30T15:28:27.618Z,4.80
2023-12-30T15:30:57.554Z,5.60
2023-12-30T15:33:28.276Z,4.45
2023-12-30T15:36:04.202Z,3.80
2023-12-30T15:38:34.465Z,3.42
2023-12-30T15:44:08.331Z,3.25
2023-12-30T15:46:38.584Z,4.28
2023-12-30T15:49:11.220Z,3.25
2023-12-30T15:51:46.833Z,3.35
2023-12-30T15:54:16.738Z,3.28
2023-12-30T15:56:47.355Z,3.92
2023-12-30T15:59:17.188Z,4.15
2023-12-30T16:01:47.181Z,4.63
2023-12-30T16:04:17.395Z,3.83
2023-12-30T16:06:49.971Z,5.20
2023-12-30T16:09:22.815Z,4.47
2023-12-30T16:11:52.682Z,4.47
2023-12-30T16:14:23.833Z,4.47
2023-12-30T16:16:53.622Z,4.70
2023-12-30T16:19:24.164Z,5.20
2023-12-30T16:21:56.724Z,6.63
2023-12-30T16:24:26.519Z,5.32
2023-12-30T16:26:54.028Z,4.63
2023-12-30T16:29:25.603Z,5.50
2023-12-30T16:31:58.204Z,3.47
2023-12-30T16:34:28.361Z,4.88
2023-12-30T16:37:00.784Z,5.00
2023-12-30T16:39:30.579Z,4.88
2023-12-30T16:42:00.512Z,4.00
2023-12-30T16:44:30.592Z,7.35
2023-12-30T16:47:00.471Z,9.30
2023-12-30T16:49:30.696Z,7.32
2023-12-30T16:52:03.682Z,7.25
2023-12-30T16:57:03.158Z,5.95
2023-12-30T16:59:33.575Z,4.55
2023-12-30T17:02:03.794Z,5.47
2023-12-30T17:04:33.679Z,4.28
2023-12-30T17:07:06.748Z,5.53
2023-12-30T17:12:06.585Z,4.00
2023-12-30T17:14:36.813Z,3.22
2023-12-30T17:17:06.717Z,4.20
2023-12-30T17:19:36.479Z,3.22
2023-12-30T17:22:09.306Z,3.40
2023-12-30T17:24:39.090Z,3.70
2023-12-30T17:27:08.944Z,4.38
2023-12-30T17:29:38.996Z,7.90
2023-12-30T17:32:10.822Z,6.43
2023-12-30T17:34:41.081Z,4.97
2023-12-30T17:37:13.563Z,6.30
2023-12-30T17:39:43.830Z,6.65
2023-12-30T17:42:13.612Z,5.07
2023-12-30T17:44:43.473Z,4.55
2023-12-30T17:47:13.284Z,5.45
2023-12-30T17:49:43.096Z,4.75
2023-12-30T17:52:15.498Z,6.22
2023-12-30T17:54:45.696Z,6.82
2023-12-30T17:57:15.918Z,5.88
2023-12-30T17:59:45.860Z,4.43
2023-12-30T18:02:19.855Z,4.32
2023-12-30T18:04:49.897Z,5.72
2023-12-30T18:07:22.451Z,5.63
2023-12-30T18:09:52.303Z,5.15
2023-12-30T18:12:22.136Z,4.78
2023-12-30T18:14:51.930Z,4.00
2023-12-30T18:17:21.697Z,4.70
2023-12-30T18:19:52.553Z,4.78
2023-12-30T18:22:25.015Z,5.32
2023-12-30T18:24:54.891Z,5.18
2023-12-30T18:27:24.847Z,4.72
2023-12-30T18:29:54.652Z,5.15
2023-12-30T18:32:24.492Z,5.45
2023-12-30T18:34:54.851Z,4.43
2023-12-30T18:37:29.695Z,5.28
2023-12-30T18:39:59.670Z,4.07
2023-12-30T18:42:29.483Z,4.47
2023-12-30T18:44:59.699Z,4.32
2023-12-30T18:47:29.721Z,4.72
2023-12-30T18:49:59.590Z,4.60
2023-12-30T18:52:35.430Z,4.10
2023-12-30T18:55:06.512Z,5.30
2023-12-30T18:57:36.600Z,6.25
2023-12-30T19:00:06.893Z,5.40
2023-12-30T19:02:37.031Z,6.20
2023-12-30T19:05:07.169Z,5.82
2023-12-30T19:07:39.633Z,6.63
2023-12-30T19:10:12.981Z,5.18
2023-12-30T19:12:42.792Z,5.35
2023-12-30T19:15:13.181Z,5.85
2023-12-30T19:17:43.068Z,5.43
2023-12-30T19:20:13.694Z,6.28
2023-12-30T19:22:46.474Z,5.07
2023-12-30T19:25:18.082Z,5.18
2023-12-30T19:27:48.131Z,4.78
2023-12-30T19:30:17.991Z,4.53
2023-12-30T19:32:48.186Z,5.43
2023-12-30T19:35:19.537Z,7.13
2023-12-30T19:37:52.390Z,5.95
2023-12-30T19:40:19.724Z,6.57
2023-12-30T19:42:49.667Z,5.18
2023-12-30T19:45:19.642Z,5.97
2023-12-30T19:47:49.423Z,6.45
2023-12-30T19:50:19.693Z,6.18
2023-12-30T19:52:52.264Z,6.15
2023-12-30T19:55:22.165Z,6.07
2023-12-30T19:57:51.932Z,5.97
2023-12-30T20:00:22.887Z,4.68
2023-12-30T20:02:52.861Z,4.20
2023-12-30T20:05:22.700Z,3.90
2023-12-30T20:07:55.207Z,5.80
2023-12-30T20:10:25.132Z,7.97
2023-12-30T20:12:57.227Z,6.15
2023-12-30T20:15:27.671Z,6.30
2023-12-30T20:17:59.363Z,5.32
2023-12-30T20:20:29.604Z,5.93
2023-12-30T20:23:02.661Z,5.63
2023-12-30T20:25:33.117Z,4.80
2023-12-30T20:28:02.975Z,4.43
2023-12-30T20:30:32.981Z,3.90
2023-12-30T20:33:03.211Z,3.22
2023-12-30T20:35:33.412Z,3.25
2023-12-30T20:38:05.832Z,4.38
2023-12-30T20:40:35.848Z,4.45
2023-12-30T20:43:06.304Z,5.00
2023-12-30T20:45:36.484Z,5.97
2023-12-30T20:48:06.952Z,5.03
2023-12-30T20:50:38.453Z,5.82
2023-12-30T20:53:12.014Z,5.43
2023-12-30T20:55:42.309Z,6.75
2023-12-30T20:58:12.154Z,5.80
2023-12-30T21:00:42.543Z,5.55
2023-12-30T21:03:12.727Z,6.35
2023-12-30T21:05:42.727Z,5.78
2023-12-30T21:08:15.159Z,5.10
2023-12-30T21:10:45.252Z,3.92
2023-12-30T21:13:15.453Z,3.85
2023-12-30T21:15:45.504Z,3.38
2023-12-30T21:18:15.317Z,5.03
2023-12-30T21:20:45.233Z,8.00
2023-12-30T21:23:18.027Z,5.35
2023-12-30T21:25:50.463Z,5.32
2023-12-30T21:28:23.098Z,4.75
2023-12-30T21:30:53.043Z,4.95
2023-12-30T21:33:22.953Z,5.65
2023-12-30T21:35:52.960Z,5.85
2023-12-30T21:38:25.571Z,5.63
2023-12-30T21:40:55.353Z,5.68
2023-12-30T21:43:25.151Z,5.53
2023-12-30T21:45:55.453Z,5.53
2023-12-30T21:48:25.221Z,5.15
2023-12-30T21:50:57.213Z,4.72
2023-12-30T21:53:29.644Z,4.75
2023-12-30T21:55:59.712Z,4.10
2023-12-30T21:58:29.651Z,4.18
2023-12-30T22:00:59.430Z,4.47
2023-12-30T22:03:29.547Z,4.72
2023-12-30T22:05:59.392Z,4.45
2023-12-30T22:08:32.052Z,4.35
2023-12-30T22:11:01.917Z,4.93
2023-12-30T22:13:31.693Z,4.93
2023-12-30T22:16:02.088Z,5.07
2023-12-30T22:18:32.882Z,4.10
2023-12-30T22:21:02.978Z,4.38
2023-12-30T22:23:35.383Z,4.05
2023-12-30T22:26:05.212Z,4.05
2023-12-30T22:28:35.079Z,4.07
2023-12-30T22:31:05.064Z,4.10
2023-12-30T22:33:35.132Z,3.67
2023-12-30T22:36:05.156Z,4.32
2023-12-30T22:38:37.516Z,3.33
2023-12-30T22:41:07.562Z,4.00
2023-12-30T22:43:37.474Z,5.00
2023-12-30T22:46:07.445Z,4.38
2023-12-30T22:48:37.551Z,4.72
2023-12-30T22:51:07.560Z,4.60
2023-12-30T22:53:41.125Z,3.90
2023-12-30T22:56:11.583Z,4.25
2023-12-30T22:58:41.868Z,4.80
2023-12-30T23:01:11.923Z,4.22
2023-12-30T23:03:42.086Z,4.10
2023-12-30T23:06:12.160Z,4.68
2023-12-30T23:08:45.133Z,4.18
2023-12-30T23:11:14.959Z,4.15
2023-12-30T23:13:44.834Z,3.58
2023-12-30T23:16:15.194Z,3.97
2023-12-30T23:18:45.412Z,3.75
2023-12-30T23:21:15.335Z,4.00
2023-12-30T23:23:47.757Z,4.28
2023-12-30T23:26:17.752Z,4.53
2023-12-30T23:28:47.609Z,4.05
2023-12-30T23:31:17.583Z,4.20
2023-12-30T23:33:47.419Z,3.92
2023-12-30T23:36:17.663Z,3.90
2023-12-30T23:38:50.299Z,4.22
2023-12-30T23:41:20.687Z,3.85
2023-12-30T23:43:50.494Z,4.50
2023-12-30T23:46:20.313Z,3.42
2023-12-30T23:48:50.156Z,3.65
2023-12-30T23:51:20.665Z,3.83
2023-12-30T23:53:53.048Z,4.82
2023-12-30T23:56:23.118Z,3.72
2023-12-30T23:58:52.872Z,3.85
